sensor_id;sensor_type;location;lat;lon;timestamp;P1;durP1;ratioP1;P2;durP2;ratioP2
59089;SDS011;44878;50.102;18.982;2023-04-03T00:01:36;17.17;;;15.67;;
59089;SDS011;44878;50.102;18.982;2023-04-03T00:04:04;16.00;;;14.70;;
59089;SDS011;44878;50.102;18.982;2023-04-03T00:06:31;17.15;;;15.75;;
59089;SDS011;44878;50.102;18.982;2023-04-03T00:08:57;18.80;;;17.27;;
59089;SDS011;44878;50.102;18.982;2023-04-03T00:11:23;17.30;;;15.80;;
59089;SDS011;44878;50.102;18.982;2023-04-03T00:13:49;19.23;;;17.73;;
59089;SDS011;44878;50.102;18.982;2023-04-03T00:16:15;18.60;;;17.00;;
59089;SDS011;44878;50.102;18.982;2023-04-03T00:18:41;16.73;;;15.33;;
59089;SDS011;44878;50.102;18.982;2023-04-03T00:21:07;15.97;;;14.67;;
59089;SDS011;44878;50.102;18.982;2023-04-03T00:23:33;15.23;;;13.83;;
59089;SDS011;44878;50.102;18.982;2023-04-03T00:26:02;14.23;;;13.03;;
59089;SDS011;44878;50.102;18.982;2023-04-03T00:28:28;13.77;;;12.57;;
59089;SDS011;44878;50.102;18.982;2023-04-03T00:30:54;13.03;;;11.70;;
59089;SDS011;44878;50.102;18.982;2023-04-03T00:33:23;12.20;;;11.03;;
59089;SDS011;44878;50.102;18.982;2023-04-03T00:35:50;11.50;;;10.47;;
59089;SDS011;44878;50.102;18.982;2023-04-03T00:38:16;11.77;;;10.77;;
59089;SDS011;44878;50.102;18.982;2023-04-03T00:40:43;11.07;;;10.03;;
59089;SDS011;44878;50.102;18.982;2023-04-03T00:45:40;11.20;;;10.10;;
59089;SDS011;44878;50.102;18.982;2023-04-03T00:48:07;12.60;;;11.50;;
59089;SDS011;44878;50.102;18.982;2023-04-03T00:50:34;12.70;;;11.55;;
59089;SDS011;44878;50.102;18.982;2023-04-03T00:53:00;12.27;;;11.27;;
59089;SDS011;44878;50.102;18.982;2023-04-03T00:55:27;12.13;;;11.10;;
59089;SDS011;44878;50.102;18.982;2023-04-03T00:57:53;13.03;;;11.93;;
59089;SDS011;44878;50.102;18.982;2023-04-03T01:00:21;13.35;;;12.25;;
59089;SDS011;44878;50.102;18.982;2023-04-03T01:02:48;15.10;;;13.90;;
59089;SDS011;44878;50.102;18.982;2023-04-03T01:05:15;13.45;;;12.35;;
59089;SDS011;44878;50.102;18.982;2023-04-03T01:07:41;15.67;;;14.27;;
59089;SDS011;44878;50.102;18.982;2023-04-03T01:10:09;13.23;;;12.03;;
59089;SDS011;44878;50.102;18.982;2023-04-03T01:12:36;12.35;;;11.35;;
59089;SDS011;44878;50.102;18.982;2023-04-03T01:15:07;12.95;;;11.85;;
59089;SDS011;44878;50.102;18.982;2023-04-03T01:17:34;12.30;;;10.93;;
59089;SDS011;44878;50.102;18.982;2023-04-03T01:22:28;12.50;;;11.40;;
59089;SDS011;44878;50.102;18.982;2023-04-03T01:24:55;14.53;;;13.23;;
59089;SDS011;44878;50.102;18.982;2023-04-03T01:27:21;13.97;;;12.77;;
59089;SDS011;44878;50.102;18.982;2023-04-03T01:29:47;13.40;;;12.10;;
59089;SDS011;44878;50.102;18.982;2023-04-03T01:32:13;13.77;;;12.53;;
59089;SDS011;44878;50.102;18.982;2023-04-03T01:34:39;14.20;;;12.90;;
59089;SDS011;44878;50.102;18.982;2023-04-03T01:37:05;16.50;;;15.07;;
59089;SDS011;44878;50.102;18.982;2023-04-03T01:39:31;17.00;;;15.50;;
59089;SDS011;44878;50.102;18.982;2023-04-03T01:41:57;15.53;;;14.13;;
59089;SDS011;44878;50.102;18.982;2023-04-03T01:46:50;17.43;;;15.93;;
59089;SDS011;44878;50.102;18.982;2023-04-03T01:49:16;17.23;;;15.73;;
59089;SDS011;44878;50.102;18.982;2023-04-03T01:51:42;18.87;;;17.07;;
59089;SDS011;44878;50.102;18.982;2023-04-03T01:54:08;19.70;;;18.00;;
59089;SDS011;44878;50.102;18.982;2023-04-03T01:56:36;20.73;;;18.83;;
59089;SDS011;44878;50.102;18.982;2023-04-03T01:59:02;20.33;;;18.57;;
59089;SDS011;44878;50.102;18.982;2023-04-03T02:01:31;20.33;;;18.63;;
59089;SDS011;44878;50.102;18.982;2023-04-03T02:03:57;19.13;;;17.53;;
59089;SDS011;44878;50.102;18.982;2023-04-03T02:06:23;19.07;;;17.37;;
59089;SDS011;44878;50.102;18.982;2023-04-03T02:08:49;19.13;;;17.43;;
59089;SDS011;44878;50.102;18.982;2023-04-03T02:11:14;18.00;;;16.33;;
59089;SDS011;44878;50.102;18.982;2023-04-03T02:13:40;18.20;;;16.60;;
59089;SDS011;44878;50.102;18.982;2023-04-03T02:16:07;18.37;;;16.80;;
59089;SDS011;44878;50.102;18.982;2023-04-03T02:18:34;20.60;;;18.85;;
59089;SDS011;44878;50.102;18.982;2023-04-03T02:21:00;20.47;;;18.60;;
59089;SDS011;44878;50.102;18.982;2023-04-03T02:23:26;21.13;;;19.33;;
59089;SDS011;44878;50.102;18.982;2023-04-03T02:25:51;20.20;;;18.50;;
59089;SDS011;44878;50.102;18.982;2023-04-03T02:28:17;19.27;;;17.57;;
59089;SDS011;44878;50.102;18.982;2023-04-03T02:30:43;17.97;;;16.27;;
59089;SDS011;44878;50.102;18.982;2023-04-03T02:33:09;17.53;;;16.03;;
59089;SDS011;44878;50.102;18.982;2023-04-03T02:35:35;17.00;;;15.50;;
59089;SDS011;44878;50.102;18.982;2023-04-03T02:38:02;16.40;;;15.00;;
59089;SDS011;44878;50.102;18.982;2023-04-03T02:40:31;14.87;;;13.57;;
59089;SDS011;44878;50.102;18.982;2023-04-03T02:42:57;14.67;;;13.37;;
59089;SDS011;44878;50.102;18.982;2023-04-03T02:45:23;14.50;;;13.03;;
59089;SDS011;44878;50.102;18.982;2023-04-03T02:47:49;13.77;;;12.47;;
59089;SDS011;44878;50.102;18.982;2023-04-03T02:50:14;14.63;;;13.23;;
59089;SDS011;44878;50.102;18.982;2023-04-03T02:52:40;13.80;;;12.50;;
59089;SDS011;44878;50.102;18.982;2023-04-03T02:55:06;14.50;;;13.20;;
59089;SDS011;44878;50.102;18.982;2023-04-03T02:57:32;14.93;;;13.63;;
59089;SDS011;44878;50.102;18.982;2023-04-03T02:59:58;15.87;;;14.47;;
59089;SDS011;44878;50.102;18.982;2023-04-03T03:02:24;14.83;;;13.43;;
59089;SDS011;44878;50.102;18.982;2023-04-03T03:04:50;13.80;;;12.47;;
59089;SDS011;44878;50.102;18.982;2023-04-03T03:07:16;15.13;;;13.53;;
59089;SDS011;44878;50.102;18.982;2023-04-03T03:09:42;13.60;;;12.30;;
59089;SDS011;44878;50.102;18.982;2023-04-03T03:12:08;15.37;;;13.87;;
59089;SDS011;44878;50.102;18.982;2023-04-03T03:14:33;14.50;;;13.20;;
59089;SDS011;44878;50.102;18.982;2023-04-03T03:17:00;15.80;;;14.40;;
59089;SDS011;44878;50.102;18.982;2023-04-03T03:19:28;15.40;;;13.87;;
59089;SDS011;44878;50.102;18.982;2023-04-03T03:21:55;17.07;;;15.27;;
59089;SDS011;44878;50.102;18.982;2023-04-03T03:24:22;14.68;;;13.27;;
59089;SDS011;44878;50.102;18.982;2023-04-03T03:26:48;13.60;;;12.27;;
59089;SDS011;44878;50.102;18.982;2023-04-03T03:29:14;14.10;;;12.80;;
59089;SDS011;44878;50.102;18.982;2023-04-03T03:31:40;15.40;;;13.80;;
59089;SDS011;44878;50.102;18.982;2023-04-03T03:34:06;16.33;;;14.63;;
59089;SDS011;44878;50.102;18.982;2023-04-03T03:36:32;16.30;;;14.80;;
59089;SDS011;44878;50.102;18.982;2023-04-03T03:38:59;16.37;;;14.77;;
59089;SDS011;44878;50.102;18.982;2023-04-03T03:41:25;15.88;;;14.27;;
59089;SDS011;44878;50.102;18.982;2023-04-03T03:43:50;15.97;;;14.47;;
59089;SDS011;44878;50.102;18.982;2023-04-03T03:46:16;16.03;;;14.43;;
59089;SDS011;44878;50.102;18.982;2023-04-03T03:48:42;17.87;;;16.07;;
59089;SDS011;44878;50.102;18.982;2023-04-03T03:51:08;18.70;;;16.87;;
59089;SDS011;44878;50.102;18.982;2023-04-03T03:53:34;18.30;;;16.00;;
59089;SDS011;44878;50.102;18.982;2023-04-03T03:56:00;17.13;;;15.57;;
59089;SDS011;44878;50.102;18.982;2023-04-03T03:58:26;16.93;;;15.33;;
59089;SDS011;44878;50.102;18.982;2023-04-03T04:00:52;16.80;;;15.10;;
59089;SDS011;44878;50.102;18.982;2023-04-03T04:03:18;15.87;;;14.33;;
59089;SDS011;44878;50.102;18.982;2023-04-03T04:05:44;15.17;;;13.60;;
59089;SDS011;44878;50.102;18.982;2023-04-03T04:08:09;15.70;;;14.10;;
59089;SDS011;44878;50.102;18.982;2023-04-03T04:10:36;15.03;;;13.47;;
59089;SDS011;44878;50.102;18.982;2023-04-03T04:13:03;15.60;;;14.13;;
59089;SDS011;44878;50.102;18.982;2023-04-03T04:15:29;15.10;;;13.70;;
59089;SDS011;44878;50.102;18.982;2023-04-03T04:17:54;15.97;;;14.53;;
59089;SDS011;44878;50.102;18.982;2023-04-03T04:20:21;14.83;;;13.43;;
59089;SDS011;44878;50.102;18.982;2023-04-03T04:22:46;15.90;;;13.07;;
59089;SDS011;44878;50.102;18.982;2023-04-03T04:25:12;14.57;;;13.07;;
59089;SDS011;44878;50.102;18.982;2023-04-03T04:27:38;15.27;;;13.80;;
59089;SDS011;44878;50.102;18.982;2023-04-03T04:30:04;19.30;;;17.30;;
59089;SDS011;44878;50.102;18.982;2023-04-03T04:32:30;13.70;;;12.30;;
59089;SDS011;44878;50.102;18.982;2023-04-03T04:34:56;14.00;;;11.37;;
59089;SDS011;44878;50.102;18.982;2023-04-03T04:37:22;14.67;;;11.53;;
59089;SDS011;44878;50.102;18.982;2023-04-03T04:39:48;14.50;;;12.27;;
59089;SDS011;44878;50.102;18.982;2023-04-03T04:42:14;14.10;;;11.77;;
59089;SDS011;44878;50.102;18.982;2023-04-03T04:44:43;12.70;;;10.00;;
59089;SDS011;44878;50.102;18.982;2023-04-03T04:47:09;11.60;;;10.40;;
59089;SDS011;44878;50.102;18.982;2023-04-03T04:49:35;13.63;;;10.70;;
59089;SDS011;44878;50.102;18.982;2023-04-03T04:52:01;11.67;;;9.93;;
59089;SDS011;44878;50.102;18.982;2023-04-03T04:54:27;12.17;;;9.80;;
59089;SDS011;44878;50.102;18.982;2023-04-03T04:56:53;12.37;;;10.67;;
59089;SDS011;44878;50.102;18.982;2023-04-03T04:59:19;13.90;;;10.33;;
59089;SDS011;44878;50.102;18.982;2023-04-03T05:01:44;12.67;;;10.10;;
59089;SDS011;44878;50.102;18.982;2023-04-03T05:04:10;14.83;;;10.80;;
59089;SDS011;44878;50.102;18.982;2023-04-03T05:06:38;13.25;;;10.77;;
59089;SDS011;44878;50.102;18.982;2023-04-03T05:09:04;14.10;;;10.87;;
59089;SDS011;44878;50.102;18.982;2023-04-03T05:11:33;13.20;;;10.23;;
59089;SDS011;44878;50.102;18.982;2023-04-03T05:13:59;13.03;;;9.83;;
59089;SDS011;44878;50.102;18.982;2023-04-03T05:16:25;15.47;;;10.90;;
59089;SDS011;44878;50.102;18.982;2023-04-03T05:18:51;12.40;;;10.53;;
59089;SDS011;44878;50.102;18.982;2023-04-03T05:21:17;12.63;;;10.90;;
59089;SDS011;44878;50.102;18.982;2023-04-03T05:23:44;12.47;;;11.07;;
59089;SDS011;44878;50.102;18.982;2023-04-03T05:26:09;13.40;;;11.17;;
59089;SDS011;44878;50.102;18.982;2023-04-03T05:28:35;14.83;;;11.93;;
59089;SDS011;44878;50.102;18.982;2023-04-03T05:31:01;15.27;;;12.20;;
59089;SDS011;44878;50.102;18.982;2023-04-03T05:33:28;15.40;;;13.13;;
59089;SDS011;44878;50.102;18.982;2023-04-03T05:35:54;14.87;;;13.33;;
59089;SDS011;44878;50.102;18.982;2023-04-03T05:38:23;17.97;;;12.03;;
59089;SDS011;44878;50.102;18.982;2023-04-03T05:40:49;19.57;;;12.33;;
59089;SDS011;44878;50.102;18.982;2023-04-03T05:43:15;15.63;;;13.97;;
59089;SDS011;44878;50.102;18.982;2023-04-03T05:45:42;16.43;;;13.83;;
59089;SDS011;44878;50.102;18.982;2023-04-03T05:48:08;15.27;;;12.93;;
59089;SDS011;44878;50.102;18.982;2023-04-03T05:50:34;17.87;;;13.90;;
59089;SDS011;44878;50.102;18.982;2023-04-03T05:53:03;15.03;;;11.97;;
59089;SDS011;44878;50.102;18.982;2023-04-03T05:55:29;14.93;;;13.43;;
59089;SDS011;44878;50.102;18.982;2023-04-03T05:57:55;15.10;;;13.50;;
59089;SDS011;44878;50.102;18.982;2023-04-03T06:00:21;16.77;;;13.43;;
59089;SDS011;44878;50.102;18.982;2023-04-03T06:02:47;14.97;;;13.37;;
59089;SDS011;44878;50.102;18.982;2023-04-03T06:05:12;15.43;;;13.33;;
59089;SDS011;44878;50.102;18.982;2023-04-03T06:07:40;16.00;;;13.55;;
59089;SDS011;44878;50.102;18.982;2023-04-03T06:10:06;14.10;;;12.70;;
59089;SDS011;44878;50.102;18.982;2023-04-03T06:12:32;14.97;;;13.07;;
59089;SDS011;44878;50.102;18.982;2023-04-03T06:15:01;15.13;;;12.60;;
59089;SDS011;44878;50.102;18.982;2023-04-03T06:17:27;18.03;;;14.03;;
59089;SDS011;44878;50.102;18.982;2023-04-03T06:19:54;15.82;;;14.13;;
59089;SDS011;44878;50.102;18.982;2023-04-03T06:22:21;15.70;;;13.47;;
59089;SDS011;44878;50.102;18.982;2023-04-03T06:24:47;14.20;;;12.70;;
59089;SDS011;44878;50.102;18.982;2023-04-03T06:27:13;17.23;;;13.63;;
59089;SDS011;44878;50.102;18.982;2023-04-03T06:29:38;13.97;;;12.47;;
59089;SDS011;44878;50.102;18.982;2023-04-03T06:32:04;15.00;;;13.07;;
59089;SDS011;44878;50.102;18.982;2023-04-03T06:34:30;16.17;;;14.47;;
59089;SDS011;44878;50.102;18.982;2023-04-03T06:36:57;18.70;;;15.50;;
59089;SDS011;44878;50.102;18.982;2023-04-03T06:39:22;16.17;;;14.53;;
59089;SDS011;44878;50.102;18.982;2023-04-03T06:41:49;15.60;;;13.90;;
59089;SDS011;44878;50.102;18.982;2023-04-03T06:44:16;17.02;;;14.57;;
59089;SDS011;44878;50.102;18.982;2023-04-03T06:46:42;16.57;;;14.70;;
59089;SDS011;44878;50.102;18.982;2023-04-03T06:49:08;16.97;;;15.20;;
59089;SDS011;44878;50.102;18.982;2023-04-03T06:51:35;16.30;;;14.70;;
59089;SDS011;44878;50.102;18.982;2023-04-03T06:54:01;15.93;;;13.03;;
59089;SDS011;44878;50.102;18.982;2023-04-03T06:56:27;15.83;;;13.40;;
59089;SDS011;44878;50.102;18.982;2023-04-03T06:58:53;15.90;;;13.93;;
59089;SDS011;44878;50.102;18.982;2023-04-03T07:01:23;16.43;;;13.73;;
59089;SDS011;44878;50.102;18.982;2023-04-03T07:03:50;14.70;;;12.52;;
59089;SDS011;44878;50.102;18.982;2023-04-03T07:06:16;15.33;;;12.47;;
59089;SDS011;44878;50.102;18.982;2023-04-03T07:08:43;13.90;;;11.10;;
59089;SDS011;44878;50.102;18.982;2023-04-03T07:11:09;13.00;;;11.03;;
59089;SDS011;44878;50.102;18.982;2023-04-03T07:13:36;11.40;;;9.83;;
59089;SDS011;44878;50.102;18.982;2023-04-03T07:16:02;14.83;;;11.00;;
59089;SDS011;44878;50.102;18.982;2023-04-03T07:18:30;14.47;;;10.60;;
59089;SDS011;44878;50.102;18.982;2023-04-03T07:20:56;16.70;;;10.40;;
59089;SDS011;44878;50.102;18.982;2023-04-03T07:23:22;15.77;;;10.43;;
59089;SDS011;44878;50.102;18.982;2023-04-03T07:25:49;13.87;;;10.20;;
59089;SDS011;44878;50.102;18.982;2023-04-03T07:28:15;13.15;;;9.18;;
59089;SDS011;44878;50.102;18.982;2023-04-03T07:30:46;17.33;;;13.38;;
59089;SDS011;44878;50.102;18.982;2023-04-03T07:33:13;13.47;;;8.57;;
59089;SDS011;44878;50.102;18.982;2023-04-03T07:35:39;14.03;;;9.10;;
59089;SDS011;44878;50.102;18.982;2023-04-03T07:38:05;11.50;;;7.83;;
59089;SDS011;44878;50.102;18.982;2023-04-03T07:40:32;12.70;;;8.03;;
59089;SDS011;44878;50.102;18.982;2023-04-03T07:42:57;11.00;;;7.20;;
59089;SDS011;44878;50.102;18.982;2023-04-03T07:45:24;10.23;;;6.87;;
59089;SDS011;44878;50.102;18.982;2023-04-03T07:47:50;12.40;;;7.13;;
59089;SDS011;44878;50.102;18.982;2023-04-03T07:50:16;10.87;;;7.97;;
59089;SDS011;44878;50.102;18.982;2023-04-03T07:52:42;12.47;;;7.23;;
59089;SDS011;44878;50.102;18.982;2023-04-03T07:55:08;10.10;;;7.07;;
59089;SDS011;44878;50.102;18.982;2023-04-03T07:57:33;14.73;;;11.23;;
59089;SDS011;44878;50.102;18.982;2023-04-03T07:59:59;12.87;;;8.50;;
59089;SDS011;44878;50.102;18.982;2023-04-03T08:02:25;10.87;;;8.20;;
59089;SDS011;44878;50.102;18.982;2023-04-03T08:04:52;10.40;;;7.47;;
59089;SDS011;44878;50.102;18.982;2023-04-03T08:07:24;12.13;;;7.63;;
59089;SDS011;44878;50.102;18.982;2023-04-03T08:09:51;13.20;;;8.00;;
59089;SDS011;44878;50.102;18.982;2023-04-03T08:12:16;11.70;;;8.27;;
59089;SDS011;44878;50.102;18.982;2023-04-03T08:14:43;12.00;;;8.03;;
59089;SDS011;44878;50.102;18.982;2023-04-03T08:17:09;12.77;;;8.03;;
59089;SDS011;44878;50.102;18.982;2023-04-03T08:19:37;10.77;;;7.40;;
59089;SDS011;44878;50.102;18.982;2023-04-03T08:22:04;12.67;;;8.07;;
59089;SDS011;44878;50.102;18.982;2023-04-03T08:24:31;9.38;;;6.93;;
59089;SDS011;44878;50.102;18.982;2023-04-03T08:26:57;9.47;;;6.97;;
59089;SDS011;44878;50.102;18.982;2023-04-03T08:29:23;8.43;;;6.03;;
59089;SDS011;44878;50.102;18.982;2023-04-03T08:31:49;9.97;;;5.83;;
59089;SDS011;44878;50.102;18.982;2023-04-03T08:34:16;10.93;;;6.60;;
59089;SDS011;44878;50.102;18.982;2023-04-03T08:36:42;11.73;;;6.10;;
59089;SDS011;44878;50.102;18.982;2023-04-03T08:39:08;10.13;;;5.70;;
59089;SDS011;44878;50.102;18.982;2023-04-03T08:41:35;20.07;;;13.87;;
59089;SDS011;44878;50.102;18.982;2023-04-03T08:55:00;6.43;;;3.60;;
59089;SDS011;44878;50.102;18.982;2023-04-03T08:57:38;6.60;;;3.73;;
59089;SDS011;44878;50.102;18.982;2023-04-03T09:00:06;6.80;;;3.70;;
59089;SDS011;44878;50.102;18.982;2023-04-03T09:02:34;6.93;;;3.80;;
59089;SDS011;44878;50.102;18.982;2023-04-03T09:05:05;7.67;;;3.77;;
59089;SDS011;44878;50.102;18.982;2023-04-03T09:07:36;7.27;;;3.73;;
59089;SDS011;44878;50.102;18.982;2023-04-03T09:10:05;6.20;;;3.80;;
59089;SDS011;44878;50.102;18.982;2023-04-03T09:12:37;7.70;;;3.73;;
59089;SDS011;44878;50.102;18.982;2023-04-03T09:22:35;8.50;;;4.30;;
59089;SDS011;44878;50.102;18.982;2023-04-03T09:27:41;6.13;;;3.80;;
59089;SDS011;44878;50.102;18.982;2023-04-03T09:30:21;6.73;;;3.57;;
59089;SDS011;44878;50.102;18.982;2023-04-03T09:32:47;6.20;;;4.13;;
59089;SDS011;44878;50.102;18.982;2023-04-03T09:38:02;6.80;;;4.00;;
59089;SDS011;44878;50.102;18.982;2023-04-03T09:40:47;6.50;;;3.73;;
59089;SDS011;44878;50.102;18.982;2023-04-03T09:43:20;7.47;;;3.87;;
59089;SDS011;44878;50.102;18.982;2023-04-03T09:45:47;5.37;;;3.13;;
59089;SDS011;44878;50.102;18.982;2023-04-03T09:50:59;5.27;;;3.37;;
59089;SDS011;44878;50.102;18.982;2023-04-03T09:53:38;5.83;;;3.30;;
59089;SDS011;44878;50.102;18.982;2023-04-03T10:01:29;7.18;;;3.83;;
59089;SDS011;44878;50.102;18.982;2023-04-03T10:04:28;5.87;;;3.53;;
59089;SDS011;44878;50.102;18.982;2023-04-03T10:06:49;6.73;;;3.50;;
59089;SDS011;44878;50.102;18.982;2023-04-03T10:14:25;9.23;;;4.00;;
59089;SDS011;44878;50.102;18.982;2023-04-03T10:16:54;6.85;;;4.03;;
59089;SDS011;44878;50.102;18.982;2023-04-03T10:21:48;6.60;;;4.10;;
59089;SDS011;44878;50.102;18.982;2023-04-03T10:27:01;6.97;;;3.77;;
59089;SDS011;44878;50.102;18.982;2023-04-03T10:34:40;5.97;;;3.90;;
59089;SDS011;44878;50.102;18.982;2023-04-03T10:37:30;7.27;;;3.80;;
59089;SDS011;44878;50.102;18.982;2023-04-03T10:42:50;6.43;;;4.10;;
59089;SDS011;44878;50.102;18.982;2023-04-03T10:58:52;7.30;;;4.20;;
59089;SDS011;44878;50.102;18.982;2023-04-03T11:01:38;4.80;;;3.10;;
59089;SDS011;44878;50.102;18.982;2023-04-03T11:04:07;5.40;;;3.37;;
59089;SDS011;44878;50.102;18.982;2023-04-03T11:06:37;6.93;;;3.50;;
59089;SDS011;44878;50.102;18.982;2023-04-03T11:09:07;7.00;;;3.43;;
59089;SDS011;44878;50.102;18.982;2023-04-03T11:11:37;6.83;;;3.33;;
59089;SDS011;44878;50.102;18.982;2023-04-03T11:16:31;7.40;;;3.70;;
59089;SDS011;44878;50.102;18.982;2023-04-03T11:19:03;5.70;;;3.63;;
59089;SDS011;44878;50.102;18.982;2023-04-03T11:21:37;7.03;;;3.87;;
59089;SDS011;44878;50.102;18.982;2023-04-03T11:24:05;5.30;;;3.40;;
59089;SDS011;44878;50.102;18.982;2023-04-03T11:26:40;6.67;;;3.27;;
59089;SDS011;44878;50.102;18.982;2023-04-03T11:29:09;5.73;;;3.23;;
59089;SDS011;44878;50.102;18.982;2023-04-03T11:37:28;6.35;;;3.22;;
59089;SDS011;44878;50.102;18.982;2023-04-03T11:39:56;4.40;;;2.27;;
59089;SDS011;44878;50.102;18.982;2023-04-03T11:42:32;3.97;;;2.37;;
59089;SDS011;44878;50.102;18.982;2023-04-03T11:50:40;8.23;;;4.57;;
59089;SDS011;44878;50.102;18.982;2023-04-03T12:16:04;5.57;;;2.87;;
59089;SDS011;44878;50.102;18.982;2023-04-03T12:20:59;5.40;;;3.20;;
59089;SDS011;44878;50.102;18.982;2023-04-03T12:23:26;5.90;;;3.10;;
59089;SDS011;44878;50.102;18.982;2023-04-03T12:25:53;6.68;;;3.65;;
59089;SDS011;44878;50.102;18.982;2023-04-03T12:28:24;5.43;;;3.20;;
59089;SDS011;44878;50.102;18.982;2023-04-03T12:30:51;5.87;;;3.37;;
59089;SDS011;44878;50.102;18.982;2023-04-03T12:33:22;7.97;;;3.90;;
59089;SDS011;44878;50.102;18.982;2023-04-03T12:46:17;8.70;;;4.27;;
59089;SDS011;44878;50.102;18.982;2023-04-03T12:48:48;5.53;;;3.58;;
59089;SDS011;44878;50.102;18.982;2023-04-03T12:51:35;6.87;;;3.60;;
59089;SDS011;44878;50.102;18.982;2023-04-03T12:54:16;5.40;;;3.33;;
59089;SDS011;44878;50.102;18.982;2023-04-03T12:56:44;5.60;;;3.07;;
59089;SDS011;44878;50.102;18.982;2023-04-03T12:59:14;5.33;;;3.60;;
59089;SDS011;44878;50.102;18.982;2023-04-03T13:01:41;5.37;;;3.60;;
59089;SDS011;44878;50.102;18.982;2023-04-03T13:04:09;5.63;;;3.70;;
59089;SDS011;44878;50.102;18.982;2023-04-03T13:06:43;7.37;;;3.57;;
59089;SDS011;44878;50.102;18.982;2023-04-03T13:09:22;6.30;;;3.80;;
59089;SDS011;44878;50.102;18.982;2023-04-03T13:11:50;7.10;;;4.23;;
59089;SDS011;44878;50.102;18.982;2023-04-03T13:14:18;7.23;;;4.77;;
59089;SDS011;44878;50.102;18.982;2023-04-03T13:16:57;6.68;;;3.90;;
59089;SDS011;44878;50.102;18.982;2023-04-03T13:19:25;5.80;;;3.30;;
59089;SDS011;44878;50.102;18.982;2023-04-03T13:21:57;5.00;;;3.30;;
59089;SDS011;44878;50.102;18.982;2023-04-03T13:24:23;6.13;;;3.77;;
59089;SDS011;44878;50.102;18.982;2023-04-03T13:26:50;6.20;;;3.43;;
59089;SDS011;44878;50.102;18.982;2023-04-03T13:29:19;5.27;;;4.17;;
59089;SDS011;44878;50.102;18.982;2023-04-03T13:31:46;5.80;;;3.20;;
59089;SDS011;44878;50.102;18.982;2023-04-03T13:34:13;5.33;;;3.53;;
59089;SDS011;44878;50.102;18.982;2023-04-03T13:36:45;4.97;;;3.00;;
59089;SDS011;44878;50.102;18.982;2023-04-03T13:41:42;5.80;;;3.20;;
59089;SDS011;44878;50.102;18.982;2023-04-03T13:44:15;6.57;;;3.13;;
59089;SDS011;44878;50.102;18.982;2023-04-03T13:46:42;5.00;;;3.20;;
59089;SDS011;44878;50.102;18.982;2023-04-03T13:49:18;6.57;;;3.13;;
59089;SDS011;44878;50.102;18.982;2023-04-03T13:51:44;5.60;;;3.00;;
59089;SDS011;44878;50.102;18.982;2023-04-03T13:54:18;6.20;;;3.33;;
59089;SDS011;44878;50.102;18.982;2023-04-03T13:56:44;4.93;;;3.23;;
59089;SDS011;44878;50.102;18.982;2023-04-03T14:01:53;4.87;;;3.30;;
59089;SDS011;44878;50.102;18.982;2023-04-03T14:04:23;6.63;;;3.80;;
59089;SDS011;44878;50.102;18.982;2023-04-03T14:06:49;6.43;;;3.27;;
59089;SDS011;44878;50.102;18.982;2023-04-03T14:09:17;6.63;;;3.67;;
59089;SDS011;44878;50.102;18.982;2023-04-03T14:11:44;5.93;;;3.42;;
59089;SDS011;44878;50.102;18.982;2023-04-03T14:14:15;6.30;;;3.67;;
59089;SDS011;44878;50.102;18.982;2023-04-03T14:16:43;6.60;;;3.60;;
59089;SDS011;44878;50.102;18.982;2023-04-03T14:19:32;7.03;;;3.30;;
59089;SDS011;44878;50.102;18.982;2023-04-03T14:21:56;6.20;;;3.40;;
59089;SDS011;44878;50.102;18.982;2023-04-03T14:24:23;4.93;;;3.30;;
59089;SDS011;44878;50.102;18.982;2023-04-03T14:26:52;5.20;;;3.30;;
59089;SDS011;44878;50.102;18.982;2023-04-03T14:29:18;5.83;;;3.97;;
59089;SDS011;44878;50.102;18.982;2023-04-03T14:31:45;7.47;;;4.32;;
59089;SDS011;44878;50.102;18.982;2023-04-03T14:34:12;5.37;;;3.53;;
59089;SDS011;44878;50.102;18.982;2023-04-03T14:36:38;7.17;;;4.37;;
59089;SDS011;44878;50.102;18.982;2023-04-03T14:39:04;6.77;;;4.07;;
59089;SDS011;44878;50.102;18.982;2023-04-03T14:41:34;8.17;;;4.33;;
59089;SDS011;44878;50.102;18.982;2023-04-03T14:44:00;7.40;;;4.43;;
59089;SDS011;44878;50.102;18.982;2023-04-03T14:46:30;6.30;;;3.83;;
59089;SDS011;44878;50.102;18.982;2023-04-03T14:49:01;6.23;;;3.80;;
59089;SDS011;44878;50.102;18.982;2023-04-03T14:51:27;7.10;;;3.80;;
59089;SDS011;44878;50.102;18.982;2023-04-03T14:53:53;7.57;;;4.10;;
59089;SDS011;44878;50.102;18.982;2023-04-03T14:56:22;6.73;;;4.40;;
59089;SDS011;44878;50.102;18.982;2023-04-03T14:58:49;7.55;;;4.30;;
59089;SDS011;44878;50.102;18.982;2023-04-03T15:01:23;6.63;;;4.10;;
59089;SDS011;44878;50.102;18.982;2023-04-03T15:03:49;6.07;;;3.80;;
59089;SDS011;44878;50.102;18.982;2023-04-03T15:06:15;5.50;;;3.90;;
59089;SDS011;44878;50.102;18.982;2023-04-03T15:08:42;5.10;;;3.37;;
59089;SDS011;44878;50.102;18.982;2023-04-03T15:11:11;6.18;;;3.80;;
59089;SDS011;44878;50.102;18.982;2023-04-03T15:13:37;7.73;;;4.17;;
59089;SDS011;44878;50.102;18.982;2023-04-03T15:16:04;6.97;;;4.10;;
59089;SDS011;44878;50.102;18.982;2023-04-03T15:18:31;14.83;;;10.53;;
59089;SDS011;44878;50.102;18.982;2023-04-03T15:21:01;6.67;;;3.70;;
59089;SDS011;44878;50.102;18.982;2023-04-03T15:23:27;6.07;;;3.90;;
59089;SDS011;44878;50.102;18.982;2023-04-03T15:25:55;8.00;;;4.30;;
59089;SDS011;44878;50.102;18.982;2023-04-03T15:28:27;5.73;;;4.10;;
59089;SDS011;44878;50.102;18.982;2023-04-03T15:30:54;8.63;;;4.03;;
59089;SDS011;44878;50.102;18.982;2023-04-03T15:33:20;7.03;;;3.73;;
59089;SDS011;44878;50.102;18.982;2023-04-03T15:35:46;7.67;;;4.53;;
59089;SDS011;44878;50.102;18.982;2023-04-03T15:38:12;7.97;;;4.30;;
59089;SDS011;44878;50.102;18.982;2023-04-03T15:40:38;5.73;;;4.27;;
59089;SDS011;44878;50.102;18.982;2023-04-03T15:43:04;8.07;;;5.13;;
59089;SDS011;44878;50.102;18.982;2023-04-03T15:45:34;12.77;;;8.85;;
59089;SDS011;44878;50.102;18.982;2023-04-03T15:48:01;7.90;;;4.70;;
59089;SDS011;44878;50.102;18.982;2023-04-03T15:50:30;7.17;;;4.47;;
59089;SDS011;44878;50.102;18.982;2023-04-03T15:52:56;7.37;;;4.57;;
59089;SDS011;44878;50.102;18.982;2023-04-03T15:55:24;8.80;;;4.72;;
59089;SDS011;44878;50.102;18.982;2023-04-03T15:57:50;7.03;;;4.33;;
59089;SDS011;44878;50.102;18.982;2023-04-03T16:00:16;6.80;;;4.90;;
59089;SDS011;44878;50.102;18.982;2023-04-03T16:02:42;9.30;;;4.70;;
59089;SDS011;44878;50.102;18.982;2023-04-03T16:05:09;7.27;;;5.00;;
59089;SDS011;44878;50.102;18.982;2023-04-03T16:07:36;8.20;;;4.30;;
59089;SDS011;44878;50.102;18.982;2023-04-03T16:10:03;7.38;;;4.00;;
59089;SDS011;44878;50.102;18.982;2023-04-03T16:12:29;7.37;;;4.60;;
59089;SDS011;44878;50.102;18.982;2023-04-03T16:14:58;8.90;;;4.67;;
59089;SDS011;44878;50.102;18.982;2023-04-03T16:17:24;6.27;;;4.33;;
59089;SDS011;44878;50.102;18.982;2023-04-03T16:19:51;8.55;;;4.53;;
59089;SDS011;44878;50.102;18.982;2023-04-03T16:22:17;6.97;;;4.27;;
59089;SDS011;44878;50.102;18.982;2023-04-03T16:24:43;7.57;;;4.20;;
59089;SDS011;44878;50.102;18.982;2023-04-03T16:27:09;7.03;;;4.47;;
59089;SDS011;44878;50.102;18.982;2023-04-03T16:29:35;7.73;;;4.70;;